createdAt,value
2019-01-02T00:01:55.453Z,5.30
2019-01-02T00:04:25.673Z,5.30
2019-01-02T00:06:55.313Z,5.40
2019-01-02T00:09:29.603Z,5.40
2019-01-02T00:12:02.306Z,5.50
2019-01-02T00:14:31.975Z,5.50
2019-01-02T00:17:01.795Z,5.50
2019-01-02T00:19:30.449Z,5.50
2019-01-02T00:22:02.590Z,5.40
2019-01-02T00:24:32.710Z,5.50
2019-01-02T00:27:02.084Z,5.40
2019-01-02T00:29:31.513Z,5.40
2019-01-02T00:32:04.028Z,5.40
2019-01-02T00:34:37.548Z,5.40
2019-01-02T00:37:07.817Z,5.30
2019-01-02T00:39:36.258Z,5.40
2019-01-02T00:42:05.837Z,5.40
2019-01-02T00:44:38.170Z,5.40
2019-01-02T00:47:08.550Z,5.50
2019-01-02T00:49:37.028Z,5.50
2019-01-02T00:52:07.377Z,5.40
2019-01-02T00:54:40.243Z,5.40
2019-01-02T00:57:13.304Z,5.30
2019-01-02T00:59:43.190Z,5.40
2019-01-02T01:02:12.022Z,5.40
2019-01-02T01:04:41.978Z,5.40
2019-01-02T01:07:12.986Z,5.40
2019-01-02T01:09:41.612Z,5.40
2019-01-02T01:12:10.152Z,5.40
2019-01-02T01:14:40.438Z,5.40
2019-01-02T01:17:10.546Z,5.50
2019-01-02T01:19:39.150Z,5.50
2019-01-02T01:22:08.374Z,5.50
2019-01-02T01:24:41.202Z,5.50
2019-01-02T01:27:10.421Z,5.50
2019-01-02T01:29:38.932Z,5.40
2019-01-02T01:32:10.239Z,5.30
2019-01-02T01:34:43.087Z,5.40
2019-01-02T01:37:19.263Z,5.40
2019-01-02T01:39:50.920Z,5.40
2019-01-02T01:42:25.131Z,5.30
2019-01-02T01:44:58.246Z,5.30
2019-01-02T01:47:27.896Z,5.30
2019-01-02T01:49:56.507Z,5.40
2019-01-02T01:52:26.695Z,5.30
2019-01-02T01:54:59.436Z,5.30
2019-01-02T01:57:33.239Z,5.40
2019-01-02T02:00:02.886Z,5.40
2019-01-02T02:02:31.936Z,5.30
2019-01-02T02:05:02.157Z,5.30
2019-01-02T02:07:36.571Z,5.40
2019-01-02T02:10:09.892Z,5.40
2019-01-02T02:12:41.518Z,5.40
2019-01-02T02:15:15.553Z,5.40
2019-01-02T02:17:50.359Z,5.40
2019-01-02T02:20:14.686Z,5.30
2019-01-02T02:22:44.816Z,5.20
2019-01-02T02:25:17.280Z,5.20
2019-01-02T02:27:49.420Z,5.20
2019-01-02T02:30:18.090Z,5.10
2019-01-02T02:32:46.689Z,5.10
2019-01-02T02:35:18.472Z,5.10
2019-01-02T02:37:51.260Z,5.20
2019-01-02T02:40:21.315Z,5.10
2019-01-02T02:42:49.745Z,5.10
2019-01-02T02:45:20.650Z,5.10
2019-01-02T02:47:52.501Z,5.10
2019-01-02T02:50:22.001Z,5.10
2019-01-02T02:52:50.869Z,5.10
2019-01-02T02:55:20.765Z,5.00
2019-01-02T02:57:54.830Z,5.00
2019-01-02T03:00:27.250Z,5.00
2019-01-02T03:03:01.757Z,5.00
2019-01-02T03:05:36.352Z,5.00
2019-01-02T03:08:08.879Z,5.00
2019-01-02T03:10:40.361Z,5.10
2019-01-02T03:13:09.243Z,5.10
2019-01-02T03:15:38.099Z,5.10
2019-01-02T03:18:12.713Z,5.10
2019-01-02T03:20:46.462Z,5.10
2019-01-02T03:23:18.877Z,5.00
2019-01-02T03:25:52.137Z,5.00
2019-01-02T03:28:25.767Z,5.00
2019-01-02T03:30:59.239Z,5.00
2019-01-02T03:33:28.914Z,5.00
2019-01-02T03:35:57.872Z,5.00
2019-01-02T03:38:28.752Z,5.00
2019-01-02T03:41:02.304Z,5.10
2019-01-02T03:43:35.210Z,5.10
2019-01-02T03:46:08.739Z,5.10
2019-01-02T03:48:38.560Z,5.10
2019-01-02T03:51:07.769Z,5.10
2019-01-02T03:53:36.614Z,5.10
2019-01-02T03:56:09.394Z,5.10
2019-01-02T03:58:38.340Z,5.10
2019-01-02T04:01:07.724Z,5.00
2019-01-02T04:03:38.150Z,5.00
2019-01-02T04:06:10.639Z,5.00
2019-01-02T04:08:42.325Z,5.00
2019-01-02T04:11:09.246Z,5.10
2019-01-02T04:13:40.419Z,5.10
2019-01-02T04:16:12.441Z,5.10
2019-01-02T04:18:47.103Z,5.10
2019-01-02T04:21:19.583Z,5.10
2019-01-02T04:23:52.773Z,5.10
2019-01-02T04:26:21.291Z,5.20
2019-01-02T04:28:49.718Z,5.20
2019-01-02T04:31:21.644Z,5.20
2019-01-02T04:33:54.332Z,5.20
2019-01-02T04:36:24.577Z,5.20
2019-01-02T04:38:53.579Z,5.20
2019-01-02T04:41:22.575Z,5.20
2019-01-02T04:43:55.431Z,5.20
2019-01-02T04:46:28.829Z,5.20
2019-01-02T04:48:59.319Z,5.20
2019-01-02T04:51:27.394Z,5.20
2019-01-02T04:53:56.649Z,5.20
2019-01-02T04:56:26.597Z,5.20
2019-01-02T04:58:55.171Z,5.20
2019-01-02T05:01:24.115Z,5.20
2019-01-02T05:03:56.469Z,5.20
2019-01-02T05:06:26.295Z,5.20
2019-01-02T05:08:54.793Z,5.20
2019-01-02T05:11:24.793Z,5.30
2019-01-02T05:13:57.401Z,5.20
2019-01-02T05:16:26.264Z,5.20
2019-01-02T05:18:55.497Z,5.20
2019-01-02T05:21:26.163Z,5.30
2019-01-02T05:23:58.373Z,5.20
2019-01-02T05:26:32.067Z,5.20
2019-01-02T05:29:02.852Z,5.20
2019-01-02T05:31:30.561Z,5.20
2019-01-02T05:34:00.895Z,5.20
2019-01-02T05:36:35.104Z,5.10
2019-01-02T05:39:07.506Z,5.10
2019-01-02T05:41:36.570Z,5.20
2019-01-02T05:44:05.036Z,5.20
2019-01-02T05:46:35.669Z,5.20
2019-01-02T05:49:08.517Z,5.20
2019-01-02T05:51:44.505Z,5.20
2019-01-02T05:54:17.015Z,5.20
2019-01-02T05:56:51.044Z,5.20
2019-01-02T05:59:23.912Z,5.20
2019-01-02T06:01:53.557Z,5.20
2019-01-02T06:04:22.033Z,5.10
2019-01-02T06:06:52.659Z,5.10
2019-01-02T06:09:25.675Z,5.00
2019-01-02T06:11:56.287Z,4.90
2019-01-02T06:14:24.821Z,4.80
2019-01-02T06:16:54.449Z,4.70
2019-01-02T06:19:28.514Z,4.70
2019-01-02T06:22:00.619Z,4.70
2019-01-02T06:24:35.107Z,4.70
2019-01-02T06:27:08.323Z,4.70
2019-01-02T06:29:40.786Z,4.60
2019-01-02T06:32:14.666Z,4.70
2019-01-02T06:34:40.094Z,4.70
2019-01-02T06:37:12.633Z,4.80
2019-01-02T06:39:48.055Z,4.90
2019-01-02T06:42:18.320Z,4.90
2019-01-02T06:44:52.968Z,4.90
2019-01-02T06:47:25.077Z,4.90
2019-01-02T06:49:58.586Z,4.90
2019-01-02T06:52:27.718Z,4.90
2019-01-02T06:54:56.476Z,4.90
2019-01-02T06:57:26.377Z,4.80
2019-01-02T06:59:59.897Z,4.80
2019-01-02T07:02:41.253Z,4.80
2019-01-02T07:05:09.746Z,4.80
2019-01-02T07:07:43.314Z,4.80
2019-01-02T07:10:16.342Z,4.70
2019-01-02T07:12:49.299Z,4.60
2019-01-02T07:15:19.416Z,4.50
2019-01-02T07:17:48.067Z,4.50
2019-01-02T07:20:17.504Z,4.50
2019-01-02T07:22:50.161Z,4.60
2019-01-02T07:25:19.930Z,4.60
2019-01-02T07:27:48.417Z,4.70
2019-01-02T07:30:20.284Z,4.70
2019-01-02T07:32:52.729Z,4.60
2019-01-02T07:35:25.132Z,4.50
2019-01-02T07:38:18.436Z,4.40
2019-01-02T07:41:03.451Z,4.50
2019-01-02T07:43:37.911Z,4.60
2019-01-02T07:46:37.508Z,4.70
2019-01-02T07:49:36.138Z,4.70
2019-01-02T07:52:28.245Z,4.80
2019-01-02T07:55:17.332Z,4.90
2019-01-02T07:58:21.457Z,4.90
2019-01-02T08:01:09.187Z,4.90
2019-01-02T08:03:46.160Z,4.90
2019-01-02T08:06:24.397Z,4.90
2019-01-02T08:09:02.696Z,4.90
2019-01-02T08:11:39.766Z,5.00
2019-01-02T08:14:29.083Z,4.90
2019-01-02T08:17:04.440Z,5.10
2019-01-02T08:19:49.360Z,5.00
2019-01-02T08:22:38.973Z,5.10
2019-01-02T08:25:22.553Z,5.10
2019-01-02T08:28:11.483Z,5.10
2019-01-02T08:30:54.936Z,5.10
2019-01-02T08:33:47.401Z,5.20
2019-01-02T08:36:20.581Z,5.20
2019-01-02T08:39:12.717Z,5.20
2019-01-02T08:42:09.687Z,5.30
2019-01-02T08:45:01.791Z,5.30
2019-01-02T08:47:39.132Z,5.30
2019-01-02T08:50:43.731Z,5.40
2019-01-02T08:53:15.260Z,5.40
2019-01-02T08:55:55.068Z,5.40
2019-01-02T08:58:41.460Z,5.50
2019-01-02T09:01:15.764Z,5.60
2019-01-02T09:04:03.531Z,5.60
2019-01-02T09:06:53.377Z,5.60
2019-01-02T09:09:47.491Z,5.60
2019-01-02T09:12:45.910Z,5.60
2019-01-02T09:15:21.333Z,5.70
2019-01-02T09:18:09.355Z,5.80
2019-01-02T09:20:43.626Z,5.80
2019-01-02T09:23:30.246Z,5.80
2019-01-02T09:26:22.931Z,5.90
2019-01-02T09:29:11.659Z,5.90
2019-01-02T09:31:45.961Z,5.80
2019-01-02T09:34:51.574Z,5.80
2019-01-02T09:37:38.435Z,5.80
2019-01-02T09:40:33.772Z,5.80
2019-01-02T09:43:08.280Z,5.80
2019-01-02T09:45:51.863Z,5.80
2019-01-02T09:48:39.140Z,5.80
2019-01-02T09:51:29.790Z,5.80
2019-01-02T09:54:20.612Z,5.80
2019-01-02T09:56:55.705Z,5.80
2019-01-02T09:59:35.807Z,5.80
2019-01-02T10:02:25.219Z,5.90
2019-01-02T10:05:24.091Z,5.90
2019-01-02T10:07:59.835Z,6.00
2019-01-02T10:10:37.185Z,6.10
2019-01-02T10:13:34.557Z,6.10
2019-01-02T10:16:11.829Z,6.20
2019-01-02T10:18:58.282Z,6.10
2019-01-02T10:21:36.640Z,6.20
2019-01-02T10:24:27.180Z,6.10
2019-01-02T10:27:17.883Z,6.10
2019-01-02T10:30:00.743Z,6.10
2019-01-02T10:32:41.148Z,6.10
2019-01-02T10:35:44.087Z,6.10
2019-01-02T10:38:34.620Z,6.20
2019-01-02T10:41:19.312Z,6.40
2019-01-02T10:44:06.972Z,6.50
2019-01-02T10:46:43.946Z,6.60
2019-01-02T10:49:39.123Z,6.50
2019-01-02T10:52:27.772Z,6.50
2019-01-02T10:55:01.962Z,6.40
2019-01-02T10:57:59.677Z,6.30
2019-01-02T11:00:48.867Z,6.20
2019-01-02T11:03:29.250Z,6.30
2019-01-02T11:06:33.432Z,6.50
2019-01-02T11:09:21.992Z,6.70
2019-01-02T11:12:09.578Z,6.70
2019-01-02T11:14:51.968Z,6.70
2019-01-02T11:17:34.728Z,6.80
2019-01-02T11:20:34.675Z,6.80
2019-01-02T11:23:35.499Z,6.90
2019-01-02T11:26:16.183Z,6.90
2019-01-02T11:28:53.720Z,6.70
2019-01-02T11:31:38.051Z,6.70
2019-01-02T11:34:30.389Z,6.60
2019-01-02T11:37:22.911Z,6.60
2019-01-02T11:40:12.386Z,6.60
2019-01-02T11:42:46.886Z,6.60
2019-01-02T11:45:15.715Z,6.70
2019-01-02T11:47:48.144Z,6.70
2019-01-02T11:50:20.714Z,6.90
2019-01-02T11:52:59.440Z,6.90
2019-01-02T11:55:19.578Z,6.80
2019-01-02T11:57:49.744Z,6.70
2019-01-02T12:00:22.238Z,6.60
2019-01-02T12:02:55.532Z,6.30
2019-01-02T12:05:29.102Z,6.20
2019-01-02T12:07:57.522Z,6.20
2019-01-02T12:10:26.209Z,6.20
2019-01-02T12:12:58.256Z,6.20
2019-01-02T12:15:30.383Z,6.10
2019-01-02T12:18:02.108Z,6.00
2019-01-02T12:20:29.003Z,6.00
2019-01-02T12:22:59.865Z,6.00
2019-01-02T12:25:32.616Z,5.90
2019-01-02T12:28:05.755Z,6.00
2019-01-02T12:33:13.148Z,6.20
2019-01-02T12:35:42.186Z,6.30
2019-01-02T12:38:10.988Z,6.50
2019-01-02T12:40:41.513Z,6.50
2019-01-02T12:43:14.797Z,6.70
2019-01-02T12:45:47.658Z,6.80
2019-01-02T12:48:20.495Z,6.90
2019-01-02T12:50:46.250Z,7.00
2019-01-02T12:53:16.300Z,7.00
2019-01-02T12:55:47.188Z,7.00
2019-01-02T12:58:15.795Z,6.90
2019-01-02T13:00:47.551Z,6.80
2019-01-02T13:03:46.035Z,6.80
2019-01-02T13:06:35.481Z,6.80
2019-01-02T13:09:24.908Z,6.80
2019-01-02T13:12:14.359Z,6.70
2019-01-02T13:15:19.513Z,6.70
2019-01-02T13:18:10.566Z,6.80
2019-01-02T13:20:50.780Z,6.90
2019-01-02T13:23:32.461Z,7.00
2019-01-02T13:26:07.250Z,7.10
2019-01-02T13:28:56.859Z,7.10
2019-01-02T13:31:48.252Z,7.00
2019-01-02T13:34:35.225Z,7.00
2019-01-02T13:37:09.850Z,7.00
2019-01-02T13:39:45.691Z,7.10
2019-01-02T13:42:22.550Z,7.20
2019-01-02T13:44:54.161Z,7.20
2019-01-02T13:47:32.038Z,7.10
2019-01-02T13:50:16.223Z,7.00
2019-01-02T13:52:48.557Z,6.90
2019-01-02T13:55:22.302Z,6.80
2019-01-02T13:58:00.521Z,6.70
2019-01-02T14:00:31.843Z,6.60
2019-01-02T14:03:05.130Z,6.60
2019-01-02T14:05:38.572Z,6.70
2019-01-02T14:08:08.738Z,6.70
2019-01-02T14:10:37.159Z,6.70
2019-01-02T14:13:08.372Z,6.50
2019-01-02T14:15:41.277Z,6.40
2019-01-02T14:18:13.255Z,6.20
2019-01-02T14:20:43.778Z,6.10
2019-01-02T14:23:15.028Z,6.10
2019-01-02T14:25:43.601Z,6.10
2019-01-02T14:28:15.849Z,6.10
2019-01-02T14:30:48.668Z,6.10
2019-01-02T14:33:21.981Z,6.10
2019-01-02T14:35:50.405Z,6.10
2019-01-02T14:38:18.837Z,6.10
2019-01-02T14:40:50.633Z,6.10
2019-01-02T14:43:20.523Z,6.20
2019-01-02T14:45:49.161Z,6.20
2019-01-02T14:48:17.825Z,6.20
2019-01-02T14:50:50.425Z,6.20
2019-01-02T14:53:24.387Z,6.20
2019-01-02T14:55:57.462Z,6.20
2019-01-02T14:58:28.487Z,6.20
2019-01-02T15:00:56.527Z,6.20
2019-01-02T15:03:27.672Z,6.10
2019-01-02T15:06:00.664Z,6.20
2019-01-02T15:08:35.363Z,6.20
2019-01-02T15:11:09.333Z,6.20
2019-01-02T15:13:42.166Z,6.20
2019-01-02T15:16:14.815Z,6.10
2019-01-02T15:18:47.770Z,6.10
2019-01-02T15:21:13.377Z,6.10
2019-01-02T15:23:43.399Z,6.10
2019-01-02T15:26:16.293Z,6.10
2019-01-02T15:28:50.229Z,6.10
2019-01-02T15:31:23.647Z,6.10
2019-01-02T15:33:55.579Z,6.10
2019-01-02T15:36:22.331Z,6.10
2019-01-02T15:38:52.477Z,6.10
2019-01-02T15:41:23.581Z,6.00
2019-01-02T15:43:51.975Z,6.00
2019-01-02T15:46:20.503Z,5.80
2019-01-02T15:48:51.161Z,5.70
2019-01-02T15:51:20.602Z,5.70
2019-01-02T15:53:49.105Z,5.60
2019-01-02T15:56:22.401Z,5.50
2019-01-02T15:59:00.999Z,5.40
2019-01-02T16:01:31.177Z,5.40
2019-01-02T16:04:02.703Z,5.30
2019-01-02T16:06:35.717Z,5.30
2019-01-02T16:09:09.775Z,5.30
2019-01-02T16:11:42.528Z,5.20
2019-01-02T16:14:16.805Z,5.20
2019-01-02T16:16:42.388Z,5.20
2019-01-02T16:19:11.339Z,5.10
2019-01-02T16:21:44.655Z,5.00
2019-01-02T16:24:17.011Z,4.90
2019-01-02T16:26:45.393Z,4.80
2019-01-02T16:29:13.919Z,4.70
2019-01-02T16:31:45.613Z,4.70
2019-01-02T16:34:15.359Z,4.80
2019-01-02T16:36:44.155Z,4.70
2019-01-02T16:39:13.236Z,4.70
2019-01-02T16:41:46.499Z,4.80
2019-01-02T16:44:19.425Z,4.70
2019-01-02T16:46:48.636Z,4.70
2019-01-02T16:49:17.963Z,4.60
2019-01-02T16:51:48.300Z,4.60
2019-01-02T16:54:20.803Z,4.60
2019-01-02T16:56:54.380Z,4.50
2019-01-02T16:59:24.222Z,4.50
2019-01-02T17:01:52.765Z,4.50
2019-01-02T17:04:23.926Z,4.60
2019-01-02T17:06:56.137Z,4.60
2019-01-02T17:09:29.021Z,4.60
2019-01-02T17:11:58.779Z,4.60
2019-01-02T17:14:27.367Z,4.60
2019-01-02T17:16:58.768Z,4.50
2019-01-02T17:19:31.731Z,4.50
2019-01-02T17:22:04.500Z,4.50
2019-01-02T17:24:37.557Z,4.50
2019-01-02T17:27:05.972Z,4.40
2019-01-02T17:29:36.120Z,4.40
2019-01-02T17:32:06.418Z,4.30
2019-01-02T17:34:39.431Z,4.30
2019-01-02T17:37:12.638Z,4.20
2019-01-02T17:39:41.049Z,4.10
2019-01-02T17:42:09.481Z,4.00
2019-01-02T17:44:41.936Z,4.20
2019-01-02T17:47:14.623Z,4.20
2019-01-02T17:49:47.516Z,4.20
2019-01-02T17:52:17.365Z,4.30
2019-01-02T17:54:45.917Z,4.30
2019-01-02T17:57:16.139Z,4.30
2019-01-02T17:59:48.524Z,4.20
2019-01-02T18:02:27.746Z,4.20
2019-01-02T18:04:48.458Z,4.30
2019-01-02T18:07:17.168Z,4.30
2019-01-02T18:09:49.973Z,4.30
2019-01-02T18:12:27.171Z,4.30
2019-01-02T18:14:58.939Z,4.20
2019-01-02T18:17:31.924Z,4.20
2019-01-02T18:20:05.757Z,4.30
2019-01-02T18:22:38.460Z,4.30
2019-01-02T18:25:07.017Z,4.20
2019-01-02T18:27:35.466Z,4.20
2019-01-02T18:30:10.581Z,4.10
2019-01-02T18:32:41.673Z,4.10
2019-01-02T18:35:13.657Z,4.00
2019-01-02T18:37:42.294Z,4.10
2019-01-02T18:40:11.317Z,4.10
2019-01-02T18:42:42.632Z,4.10
2019-01-02T18:45:15.291Z,4.10
2019-01-02T18:47:44.972Z,4.00
2019-01-02T18:50:13.525Z,3.90
2019-01-02T18:52:49.805Z,3.90
2019-01-02T18:55:18.465Z,3.90
2019-01-02T18:57:51.456Z,3.70
2019-01-02T19:00:24.212Z,3.70
2019-01-02T19:02:58.368Z,4.40
2019-01-02T19:05:23.037Z,4.80
2019-01-02T19:07:53.175Z,4.30
2019-01-02T19:10:25.783Z,3.90
2019-01-02T19:12:59.376Z,3.70
2019-01-02T19:15:31.004Z,3.60
2019-01-02T19:17:59.785Z,3.50
2019-01-02T19:20:28.408Z,3.40
2019-01-02T19:23:01.249Z,3.40
2019-01-02T19:25:34.058Z,3.20
2019-01-02T19:28:07.604Z,3.20
2019-01-02T19:30:36.062Z,3.10
2019-01-02T19:33:04.674Z,3.20
2019-01-02T19:35:36.244Z,3.40
2019-01-02T19:38:11.312Z,3.50
2019-01-02T19:40:44.184Z,3.60
2019-01-02T19:43:16.922Z,3.60
2019-01-02T19:45:54.709Z,3.60
2019-01-02T19:48:25.972Z,3.60
2019-01-02T19:50:58.838Z,3.80
2019-01-02T19:53:27.459Z,3.70
2019-01-02T19:55:56.202Z,3.80
2019-01-02T19:58:27.590Z,3.80
2019-01-02T20:01:01.009Z,3.90
2019-01-02T20:03:34.018Z,3.90
2019-01-02T20:06:04.896Z,3.90
2019-01-02T20:08:33.678Z,3.90
2019-01-02T20:11:04.136Z,4.00
2019-01-02T20:13:36.356Z,4.00
2019-01-02T20:16:09.752Z,3.90
2019-01-02T20:18:43.253Z,3.80
2019-01-02T20:21:13.898Z,3.80
2019-01-02T20:23:42.355Z,3.80
2019-01-02T20:26:12.140Z,3.70
2019-01-02T20:28:44.533Z,3.70
2019-01-02T20:31:18.021Z,3.80
2019-01-02T20:33:51.507Z,3.80
2019-01-02T20:36:21.063Z,3.90
2019-01-02T20:38:49.881Z,3.90
2019-01-02T20:41:20.271Z,4.00
2019-01-02T20:43:53.241Z,4.00
2019-01-02T20:46:28.467Z,4.10
2019-01-02T20:49:02.339Z,4.10
2019-01-02T20:51:34.620Z,4.10
2019-01-02T20:54:05.052Z,4.10
2019-01-02T20:56:33.223Z,4.20
2019-01-02T20:59:02.858Z,4.20
2019-01-02T21:01:37.142Z,4.20
2019-01-02T21:04:11.183Z,4.70
2019-01-02T21:06:43.514Z,5.20
2019-01-02T21:09:19.252Z,4.60
2019-01-02T21:11:52.795Z,4.40
2019-01-02T21:14:25.562Z,4.20
2019-01-02T21:16:58.707Z,4.20
2019-01-02T21:19:25.550Z,4.20
2019-01-02T21:21:54.384Z,4.10
2019-01-02T21:24:27.131Z,4.10
2019-01-02T21:27:00.070Z,4.00
2019-01-02T21:29:34.530Z,3.90
2019-01-02T21:31:59.087Z,3.90
2019-01-02T21:34:29.389Z,3.80
2019-01-02T21:37:03.443Z,3.80
2019-01-02T21:39:36.004Z,3.80
2019-01-02T21:42:09.952Z,3.60
2019-01-02T21:44:43.089Z,3.50
2019-01-02T21:47:11.492Z,3.50
2019-01-02T21:49:40.184Z,3.40
2019-01-02T21:52:12.095Z,3.40
2019-01-02T21:54:47.204Z,3.20
2019-01-02T21:57:20.737Z,3.20
2019-01-02T21:59:53.618Z,3.20
2019-01-02T22:02:26.509Z,3.10
2019-01-02T22:04:55.156Z,2.90
2019-01-02T22:07:24.971Z,2.80
2019-01-02T22:09:54.561Z,2.70
2019-01-02T22:12:27.391Z,2.70
2019-01-02T22:14:59.437Z,2.60
2019-01-02T22:17:27.705Z,2.50
2019-01-02T22:19:56.153Z,2.50
2019-01-02T22:22:28.669Z,2.40
2019-01-02T22:25:03.522Z,2.40
2019-01-02T22:27:34.625Z,2.30
2019-01-02T22:30:03.415Z,2.30
2019-01-02T22:32:32.932Z,2.30
2019-01-02T22:35:09.625Z,2.90
2019-01-02T22:37:39.248Z,4.10
2019-01-02T22:40:12.744Z,4.20
2019-01-02T22:42:47.189Z,3.30
2019-01-02T22:45:19.737Z,2.80
2019-01-02T22:47:49.377Z,2.50
2019-01-02T22:50:17.938Z,2.30
2019-01-02T22:52:47.906Z,2.10
2019-01-02T22:55:20.295Z,2.10
2019-01-02T22:57:49.996Z,2.00
2019-01-02T23:00:29.806Z,1.90
2019-01-02T23:03:04.608Z,1.90
2019-01-02T23:05:45.339Z,1.90
2019-01-02T23:08:25.329Z,1.90
2019-01-02T23:11:15.128Z,1.90
2019-01-02T23:13:51.005Z,1.90
2019-01-02T23:16:40.507Z,1.80
2019-01-02T23:19:12.957Z,1.70
2019-01-02T23:21:55.158Z,1.70
2019-01-02T23:24:40.069Z,1.70
2019-01-02T23:27:27.961Z,1.70
2019-01-02T23:30:03.136Z,1.70
2019-01-02T23:32:53.505Z,1.70
2019-01-02T23:35:26.248Z,1.70
2019-01-02T23:38:16.237Z,1.70
2019-01-02T23:41:01.343Z,1.70
2019-01-02T23:43:50.841Z,1.60
2019-01-02T23:46:40.085Z,1.60
2019-01-02T23:49:33.085Z,1.70
2019-01-02T23:52:05.634Z,1.70
2019-01-02T23:54:53.521Z,1.60
2019-01-02T23:57:32.672Z,1.60
